createdAt,value
2022-10-14T00:01:09.161Z,12.90
2022-10-14T00:03:37.069Z,12.80
2022-10-14T00:06:09.638Z,12.80
2022-10-14T00:08:36.313Z,12.80
2022-10-14T00:11:08.612Z,12.90
2022-10-14T00:13:35.640Z,12.80
2022-10-14T00:16:03.153Z,12.80
2022-10-14T00:18:29.999Z,12.80
2022-10-14T00:20:58.085Z,12.90
2022-10-14T00:23:25.367Z,12.80
2022-10-14T00:25:52.360Z,12.90
2022-10-14T00:28:20.079Z,12.90
2022-10-14T00:31:01.459Z,12.80
2022-10-14T00:33:28.860Z,12.90
2022-10-14T00:35:59.241Z,12.90
2022-10-14T00:38:26.918Z,12.90
2022-10-14T00:40:54.729Z,12.80
2022-10-14T00:43:24.624Z,12.90
2022-10-14T00:45:51.257Z,12.90
2022-10-14T00:48:20.988Z,12.90
2022-10-14T00:50:50.542Z,12.80
2022-10-14T00:53:18.236Z,12.90
2022-10-14T00:55:44.821Z,12.90
2022-10-14T00:58:11.760Z,12.80
2022-10-14T01:00:39.136Z,12.70
2022-10-14T01:03:22.496Z,12.80
2022-10-14T01:06:07.240Z,12.90
2022-10-14T01:09:03.155Z,12.90
2022-10-14T01:11:35.698Z,12.90
2022-10-14T01:14:11.997Z,12.90
2022-10-14T01:17:00.222Z,13.00
2022-10-14T01:19:51.512Z,13.00
2022-10-14T01:22:25.113Z,12.90
2022-10-14T01:25:06.032Z,12.90
2022-10-14T01:27:54.965Z,13.00
2022-10-14T01:30:23.841Z,12.90
2022-10-14T01:33:14.557Z,12.90
2022-10-14T01:36:02.928Z,12.90
2022-10-14T01:38:36.773Z,13.00
2022-10-14T01:41:32.674Z,13.00
2022-10-14T01:44:04.198Z,13.10
2022-10-14T01:46:33.036Z,13.10
2022-10-14T01:49:08.567Z,13.10
2022-10-14T01:51:43.852Z,13.10
2022-10-14T01:54:15.167Z,13.10
2022-10-14T01:56:44.854Z,13.00
2022-10-14T01:59:14.136Z,13.10
2022-10-14T02:01:40.812Z,13.10
2022-10-14T02:04:18.832Z,13.00
2022-10-14T02:07:07.944Z,13.10
2022-10-14T02:10:03.248Z,13.10
2022-10-14T02:12:35.579Z,13.00
2022-10-14T02:15:13.459Z,13.00
2022-10-14T02:17:56.039Z,13.00
2022-10-14T02:20:29.579Z,13.00
2022-10-14T02:23:13.413Z,13.00
2022-10-14T02:25:43.443Z,13.00
2022-10-14T02:28:15.204Z,13.10
2022-10-14T02:30:50.612Z,13.00
2022-10-14T02:33:20.734Z,13.00
2022-10-14T02:35:48.761Z,13.00
2022-10-14T02:38:17.206Z,12.90
2022-10-14T02:40:47.229Z,12.90
2022-10-14T02:43:13.968Z,12.90
2022-10-14T02:45:43.120Z,12.90
2022-10-14T02:48:10.446Z,12.90
2022-10-14T02:50:37.027Z,12.90
2022-10-14T02:53:03.916Z,12.90
2022-10-14T02:55:30.512Z,13.00
2022-10-14T02:57:57.093Z,13.00
2022-10-14T03:00:23.729Z,12.90
2022-10-14T03:02:50.331Z,12.90
2022-10-14T03:05:17.022Z,13.00
2022-10-14T03:07:43.603Z,13.00
2022-10-14T03:10:10.195Z,13.10
2022-10-14T03:12:36.795Z,13.10
2022-10-14T03:15:03.645Z,13.00
2022-10-14T03:17:30.566Z,13.10
2022-10-14T03:19:58.352Z,13.10
2022-10-14T03:22:25.472Z,13.10
2022-10-14T03:24:52.080Z,13.00
2022-10-14T03:27:18.756Z,13.00
2022-10-14T03:29:45.325Z,13.00
2022-10-14T03:32:11.960Z,13.00
2022-10-14T03:34:38.544Z,13.00
2022-10-14T03:37:05.578Z,13.00
2022-10-14T03:39:32.150Z,12.90
2022-10-14T03:41:58.825Z,13.00
2022-10-14T03:44:25.425Z,13.00
2022-10-14T03:46:52.020Z,13.00
2022-10-14T03:49:18.598Z,13.00
2022-10-14T03:51:45.220Z,13.00
2022-10-14T03:54:11.788Z,13.00
2022-10-14T03:56:38.371Z,13.00
2022-10-14T03:59:04.977Z,13.00
2022-10-14T04:01:31.771Z,13.00
2022-10-14T04:03:58.368Z,12.90
2022-10-14T04:06:25.023Z,12.90
2022-10-14T04:08:51.702Z,13.00
2022-10-14T04:11:18.285Z,13.00
2022-10-14T04:13:45.319Z,13.00
2022-10-14T04:16:12.073Z,13.00
2022-10-14T04:18:38.904Z,13.00
2022-10-14T04:21:11.849Z,13.00
2022-10-14T04:23:38.729Z,13.00
2022-10-14T04:26:06.883Z,13.00
2022-10-14T04:28:34.135Z,13.00
2022-10-14T04:31:00.832Z,13.00
2022-10-14T04:33:27.553Z,13.00
2022-10-14T04:35:58.706Z,13.00
2022-10-14T04:38:25.287Z,13.00
2022-10-14T04:40:52.079Z,12.90
2022-10-14T04:43:18.805Z,13.00
2022-10-14T04:45:45.753Z,13.10
2022-10-14T04:48:12.445Z,13.00
2022-10-14T04:50:39.000Z,13.10
2022-10-14T04:53:06.878Z,13.00
2022-10-14T04:55:35.119Z,13.10
2022-10-14T04:58:01.704Z,13.10
2022-10-14T05:00:28.623Z,13.10
2022-10-14T05:02:55.520Z,13.10
2022-10-14T05:05:22.101Z,13.00
2022-10-14T05:07:48.683Z,13.00
2022-10-14T05:10:15.300Z,13.00
2022-10-14T05:12:41.907Z,13.00
2022-10-14T05:15:09.430Z,12.90
2022-10-14T05:17:37.565Z,12.90
2022-10-14T05:20:05.024Z,13.10
2022-10-14T05:22:31.625Z,13.00
2022-10-14T05:24:58.207Z,13.00
2022-10-14T05:27:24.788Z,13.10
2022-10-14T05:29:51.360Z,13.00
2022-10-14T05:32:17.989Z,13.10
2022-10-14T05:34:44.555Z,13.10
2022-10-14T05:37:11.139Z,13.00
2022-10-14T05:39:37.757Z,12.90
2022-10-14T05:42:04.573Z,13.00
2022-10-14T05:44:31.255Z,13.00
2022-10-14T05:46:57.864Z,13.10
2022-10-14T05:49:24.958Z,13.00
2022-10-14T05:51:51.560Z,13.00
2022-10-14T05:54:18.309Z,13.10
2022-10-14T05:56:44.931Z,13.10
2022-10-14T05:59:12.080Z,13.10
2022-10-14T06:01:40.068Z,13.10
2022-10-14T06:04:06.790Z,13.10
2022-10-14T06:06:33.461Z,13.00
2022-10-14T06:09:00.176Z,13.00
2022-10-14T06:11:26.745Z,13.10
2022-10-14T06:13:53.708Z,13.10
2022-10-14T06:16:20.377Z,13.10
2022-10-14T06:18:49.939Z,13.10
2022-10-14T06:21:20.159Z,13.00
2022-10-14T06:23:46.733Z,13.10
2022-10-14T06:26:13.367Z,13.10
2022-10-14T06:28:41.048Z,13.10
2022-10-14T06:31:07.702Z,13.10
2022-10-14T06:33:34.785Z,13.10
2022-10-14T06:36:05.750Z,13.20
2022-10-14T06:38:32.434Z,13.10
2022-10-14T06:40:59.058Z,13.20
2022-10-14T06:43:25.629Z,13.10
2022-10-14T06:45:52.708Z,13.20
2022-10-14T06:48:19.300Z,13.20
2022-10-14T06:50:45.864Z,13.20
2022-10-14T06:53:12.516Z,13.20
2022-10-14T06:55:39.223Z,13.20
2022-10-14T06:58:05.897Z,13.20
2022-10-14T07:00:32.474Z,13.20
2022-10-14T07:02:59.591Z,13.20
2022-10-14T07:05:26.757Z,13.20
2022-10-14T07:07:53.561Z,13.20
2022-10-14T07:10:20.425Z,13.20
2022-10-14T07:12:47.021Z,13.20
2022-10-14T07:15:13.784Z,13.30
2022-10-14T07:17:40.382Z,13.30
2022-10-14T07:20:07.542Z,13.30
2022-10-14T07:22:38.605Z,13.30
2022-10-14T07:25:06.511Z,13.40
2022-10-14T07:27:33.274Z,13.30
2022-10-14T07:30:01.424Z,13.30
2022-10-14T07:32:28.115Z,13.40
2022-10-14T07:34:54.719Z,13.40
2022-10-14T07:37:21.937Z,13.40
2022-10-14T07:39:49.274Z,13.40
2022-10-14T07:42:15.886Z,13.40
2022-10-14T07:44:42.491Z,13.50
2022-10-14T07:47:09.113Z,13.40
2022-10-14T07:49:35.700Z,13.40
2022-10-14T07:52:02.973Z,13.50
2022-10-14T07:54:31.003Z,13.50
2022-10-14T07:56:57.941Z,13.50
2022-10-14T07:59:25.245Z,13.50
2022-10-14T08:01:53.480Z,13.50
2022-10-14T08:04:20.312Z,13.50
2022-10-14T08:06:48.681Z,13.50
2022-10-14T08:09:15.773Z,13.60
2022-10-14T08:11:43.593Z,13.60
2022-10-14T08:14:10.352Z,13.60
2022-10-14T08:16:37.613Z,13.70
2022-10-14T08:19:12.520Z,13.70
2022-10-14T08:21:39.743Z,13.70
2022-10-14T08:24:06.526Z,13.80
2022-10-14T08:26:36.210Z,13.80
2022-10-14T08:29:06.312Z,13.80
2022-10-14T08:31:33.632Z,13.80
2022-10-14T08:34:00.250Z,13.90
2022-10-14T08:36:27.316Z,13.90
2022-10-14T08:38:54.389Z,13.90
2022-10-14T08:41:53.077Z,13.90
2022-10-14T08:44:33.980Z,13.90
2022-10-14T08:47:03.153Z,13.90
2022-10-14T08:49:37.819Z,14.00
2022-10-14T08:52:27.920Z,14.10
2022-10-14T08:55:28.134Z,14.10
2022-10-14T08:58:00.913Z,14.10
2022-10-14T09:00:30.451Z,14.20
2022-10-14T09:02:59.533Z,14.20
2022-10-14T09:05:27.329Z,14.20
2022-10-14T09:07:56.404Z,14.20
2022-10-14T09:10:39.713Z,14.10
2022-10-14T09:13:34.357Z,14.10
2022-10-14T09:16:08.236Z,14.20
2022-10-14T09:18:43.322Z,14.20
2022-10-14T09:21:40.435Z,14.30
2022-10-14T09:24:16.447Z,14.30
2022-10-14T09:26:45.398Z,14.30
2022-10-14T09:29:53.339Z,14.30
2022-10-14T09:32:44.377Z,14.30
2022-10-14T09:35:32.879Z,14.30
2022-10-14T09:37:59.705Z,14.40
2022-10-14T09:40:40.745Z,14.50
2022-10-14T09:43:10.087Z,14.50
2022-10-14T09:45:59.693Z,14.50
2022-10-14T09:48:48.857Z,14.40
2022-10-14T09:51:33.857Z,14.40
2022-10-14T09:54:03.808Z,14.50
2022-10-14T09:56:38.991Z,14.50
2022-10-14T09:59:16.900Z,14.50
2022-10-14T10:01:54.839Z,14.50
2022-10-14T10:04:47.567Z,14.60
2022-10-14T10:07:40.594Z,14.50
2022-10-14T10:10:22.032Z,14.60
2022-10-14T10:12:48.842Z,14.70
2022-10-14T10:15:21.346Z,14.70
2022-10-14T10:17:50.694Z,14.80
2022-10-14T10:20:28.262Z,14.70
2022-10-14T10:22:56.621Z,14.80
2022-10-14T10:25:28.149Z,14.80
2022-10-14T10:27:58.140Z,14.80
2022-10-14T10:30:27.348Z,14.70
2022-10-14T10:33:27.576Z,14.70
2022-10-14T10:36:08.918Z,14.70
2022-10-14T10:39:00.191Z,14.70
2022-10-14T10:41:54.252Z,14.60
2022-10-14T10:44:42.132Z,14.50
2022-10-14T10:47:28.174Z,14.50
2022-10-14T10:50:30.008Z,14.50
2022-10-14T10:53:13.699Z,14.40
2022-10-14T10:55:55.092Z,14.50
2022-10-14T10:58:51.265Z,14.60
2022-10-14T11:01:50.366Z,14.60
2022-10-14T11:04:32.244Z,14.60
2022-10-14T11:07:44.114Z,14.60
2022-10-14T11:10:51.652Z,14.80
2022-10-14T11:13:36.223Z,14.80
2022-10-14T11:16:07.413Z,14.80
2022-10-14T11:18:50.467Z,14.80
2022-10-14T11:21:49.977Z,14.70
2022-10-14T11:24:28.514Z,14.80
2022-10-14T11:27:08.401Z,14.80
2022-10-14T11:29:50.341Z,14.90
2022-10-14T11:32:23.360Z,14.80
2022-10-14T11:35:17.129Z,14.80
2022-10-14T11:37:55.937Z,14.90
2022-10-14T11:40:25.340Z,14.90
2022-10-14T11:43:16.328Z,14.90
2022-10-14T11:45:50.565Z,14.90
2022-10-14T11:48:48.293Z,15.00
2022-10-14T11:51:18.325Z,15.10
2022-10-14T11:54:05.248Z,15.10
2022-10-14T11:56:38.537Z,15.10
2022-10-14T11:59:27.994Z,15.00
2022-10-14T12:02:01.188Z,15.00
2022-10-14T12:04:33.763Z,15.00
2022-10-14T12:07:02.679Z,15.00
2022-10-14T12:10:10.487Z,15.00
2022-10-14T12:12:38.113Z,15.10
2022-10-14T12:15:13.467Z,15.00
2022-10-14T12:17:50.624Z,14.90
2022-10-14T12:20:49.434Z,15.00
2022-10-14T12:23:34.238Z,15.10
2022-10-14T12:26:20.199Z,15.00
2022-10-14T12:28:47.644Z,15.10
2022-10-14T12:31:34.333Z,15.00
2022-10-14T12:34:15.747Z,15.10
2022-10-14T12:36:50.439Z,15.00
2022-10-14T12:39:16.990Z,15.00
2022-10-14T12:42:02.837Z,15.00
2022-10-14T12:44:45.401Z,15.10
2022-10-14T12:47:34.895Z,15.20
2022-10-14T12:50:26.212Z,15.20
2022-10-14T12:53:00.313Z,15.10
2022-10-14T12:55:30.047Z,15.10
2022-10-14T12:58:00.386Z,15.10
2022-10-14T13:00:26.889Z,15.00
2022-10-14T13:03:18.916Z,15.00
2022-10-14T13:05:46.430Z,15.00
2022-10-14T13:08:20.126Z,15.10
2022-10-14T13:11:12.409Z,15.10
2022-10-14T13:13:40.029Z,15.10
2022-10-14T13:16:25.771Z,15.20
2022-10-14T13:19:00.171Z,15.20
2022-10-14T13:21:31.077Z,15.20
2022-10-14T13:24:20.184Z,15.20
2022-10-14T13:26:52.821Z,15.20
2022-10-14T13:29:43.561Z,15.20
2022-10-14T13:32:38.876Z,15.20
2022-10-14T13:35:19.562Z,15.20
2022-10-14T13:38:16.625Z,15.30
2022-10-14T13:40:46.639Z,15.30
2022-10-14T13:43:16.027Z,15.30
2022-10-14T13:45:52.975Z,15.40
2022-10-14T13:48:33.231Z,15.30
2022-10-14T13:51:24.680Z,15.40
2022-10-14T13:54:17.156Z,15.40
2022-10-14T13:56:44.567Z,15.40
2022-10-14T13:59:44.168Z,15.40
2022-10-14T14:02:18.961Z,15.40
2022-10-14T14:04:51.775Z,15.40
2022-10-14T14:08:14.553Z,15.40
2022-10-14T14:10:17.395Z,15.50
2022-10-14T14:12:44.307Z,15.50
2022-10-14T14:15:24.366Z,15.50
2022-10-14T14:17:51.257Z,15.60
2022-10-14T14:20:24.501Z,15.60
2022-10-14T14:22:51.182Z,15.60
2022-10-14T14:25:43.019Z,15.60
2022-10-14T14:28:13.816Z,15.60
2022-10-14T14:30:40.423Z,15.60
2022-10-14T14:33:16.833Z,15.60
2022-10-14T14:35:55.932Z,15.60
2022-10-14T14:38:31.279Z,15.60
2022-10-14T14:41:22.942Z,15.80
2022-10-14T14:44:13.731Z,15.80
2022-10-14T14:46:40.660Z,15.80
2022-10-14T14:49:08.543Z,15.90
2022-10-14T14:51:38.127Z,15.90
2022-10-14T14:54:06.140Z,15.90
2022-10-14T14:56:49.809Z,15.90
2022-10-14T14:59:39.859Z,15.80
2022-10-14T15:02:19.359Z,15.80
2022-10-14T15:04:48.074Z,15.80
2022-10-14T15:07:27.578Z,15.90
2022-10-14T15:09:57.619Z,15.90
2022-10-14T15:12:30.636Z,15.90
2022-10-14T15:14:59.474Z,15.80
2022-10-14T15:17:36.587Z,15.90
2022-10-14T15:20:28.226Z,15.80
2022-10-14T15:22:54.824Z,15.80
2022-10-14T15:25:21.345Z,15.80
2022-10-14T15:27:53.432Z,15.70
2022-10-14T15:30:51.688Z,15.70
2022-10-14T15:33:23.610Z,15.80
2022-10-14T15:35:59.546Z,15.80
2022-10-14T15:38:27.295Z,15.80
2022-10-14T15:40:54.416Z,15.80
2022-10-14T15:43:26.322Z,15.70
2022-10-14T15:46:13.491Z,15.70
2022-10-14T15:48:45.937Z,15.60
2022-10-14T15:51:16.766Z,15.60
2022-10-14T15:53:43.369Z,15.70
2022-10-14T15:56:10.380Z,15.60
2022-10-14T15:58:36.957Z,15.60
2022-10-14T16:01:06.367Z,15.60
2022-10-14T16:03:37.185Z,15.50
2022-10-14T16:06:07.063Z,15.50
2022-10-14T16:08:34.062Z,15.60
2022-10-14T16:11:01.549Z,15.50
2022-10-14T16:13:28.148Z,15.50
2022-10-14T16:15:56.232Z,15.50
2022-10-14T16:18:24.387Z,15.40
2022-10-14T16:20:51.722Z,15.40
2022-10-14T16:23:19.895Z,15.40
2022-10-14T16:25:49.160Z,15.40
2022-10-14T16:28:17.149Z,15.40
2022-10-14T16:30:48.549Z,15.40
2022-10-14T16:33:17.274Z,15.30
2022-10-14T16:35:46.478Z,15.40
2022-10-14T16:38:13.167Z,15.40
2022-10-14T16:40:39.860Z,15.30
2022-10-14T16:43:06.550Z,15.20
2022-10-14T16:45:33.212Z,15.20
2022-10-14T16:47:59.775Z,15.20
2022-10-14T16:50:26.639Z,15.20
2022-10-14T16:53:11.973Z,15.20
2022-10-14T16:55:39.297Z,15.20
2022-10-14T16:58:06.057Z,15.20
2022-10-14T17:00:32.930Z,15.20
2022-10-14T17:02:59.567Z,15.10
2022-10-14T17:05:26.936Z,15.10
2022-10-14T17:07:53.678Z,15.10
2022-10-14T17:10:21.257Z,15.00
2022-10-14T17:12:48.096Z,15.10
2022-10-14T17:15:14.675Z,15.00
2022-10-14T17:17:41.252Z,15.00
2022-10-14T17:20:09.234Z,15.00
2022-10-14T17:22:36.417Z,15.00
2022-10-14T17:25:03.139Z,14.90
2022-10-14T17:27:29.725Z,14.80
2022-10-14T17:29:56.346Z,14.90
2022-10-14T17:32:23.175Z,14.90
2022-10-14T17:34:53.356Z,14.90
2022-10-14T17:37:20.336Z,14.90
2022-10-14T17:39:46.940Z,14.80
2022-10-14T17:42:13.621Z,14.80
2022-10-14T17:44:43.710Z,14.80
2022-10-14T17:47:10.888Z,14.80
2022-10-14T17:49:37.483Z,14.60
2022-10-14T17:52:06.108Z,14.60
2022-10-14T17:54:32.710Z,14.60
2022-10-14T17:56:59.269Z,14.60
2022-10-14T17:59:26.028Z,14.50
2022-10-14T18:02:08.087Z,14.40
2022-10-14T18:04:34.741Z,14.40
2022-10-14T18:07:01.477Z,14.30
2022-10-14T18:09:28.102Z,14.40
2022-10-14T18:12:10.590Z,14.40
2022-10-14T18:14:40.164Z,14.40
2022-10-14T18:17:07.077Z,14.40
2022-10-14T18:19:33.793Z,14.40
2022-10-14T18:22:00.382Z,14.40
2022-10-14T18:24:27.225Z,14.30
2022-10-14T18:26:53.802Z,14.30
2022-10-14T18:29:20.561Z,14.30
2022-10-14T18:31:49.708Z,14.30
2022-10-14T18:34:16.480Z,14.20
2022-10-14T18:36:43.176Z,14.20
2022-10-14T18:39:13.267Z,14.20
2022-10-14T18:41:41.635Z,14.10
2022-10-14T18:44:08.333Z,14.00
2022-10-14T18:46:36.927Z,14.00
2022-10-14T18:49:05.310Z,14.00
2022-10-14T18:51:35.219Z,14.10
2022-10-14T18:54:12.626Z,14.10
2022-10-14T18:56:39.620Z,14.00
2022-10-14T18:59:14.965Z,14.00
2022-10-14T19:01:42.525Z,14.00
2022-10-14T19:04:12.817Z,14.00
2022-10-14T19:06:40.016Z,13.90
2022-10-14T19:09:09.173Z,13.90
2022-10-14T19:11:35.756Z,14.00
2022-10-14T19:14:05.116Z,14.10
2022-10-14T19:16:35.958Z,14.10
2022-10-14T19:19:11.290Z,14.10
2022-10-14T19:21:38.724Z,14.10
2022-10-14T19:24:07.967Z,14.10
2022-10-14T19:26:36.411Z,14.10
2022-10-14T19:29:07.665Z,14.00
2022-10-14T19:31:38.303Z,14.00
2022-10-14T19:34:07.067Z,14.00
2022-10-14T19:36:37.310Z,13.90
2022-10-14T19:39:05.181Z,13.90
2022-10-14T19:41:33.948Z,13.90
2022-10-14T19:44:01.162Z,13.90
2022-10-14T19:46:29.483Z,13.90
2022-10-14T19:49:02.198Z,13.90
2022-10-14T19:51:29.059Z,13.80
2022-10-14T19:53:56.449Z,13.80
2022-10-14T19:56:23.491Z,13.80
2022-10-14T19:58:52.852Z,13.80
2022-10-14T20:01:23.284Z,13.80
2022-10-14T20:03:50.076Z,13.80
2022-10-14T20:06:16.656Z,13.70
2022-10-14T20:08:45.135Z,13.70
2022-10-14T20:11:14.329Z,13.70
2022-10-14T20:13:41.396Z,13.60
2022-10-14T20:16:09.963Z,13.60
2022-10-14T20:18:36.892Z,13.50
2022-10-14T20:21:05.423Z,13.50
2022-10-14T20:23:34.281Z,13.40
2022-10-14T20:26:02.971Z,13.40
2022-10-14T20:28:30.343Z,13.50
2022-10-14T20:30:57.432Z,13.40
2022-10-14T20:33:24.586Z,13.40
2022-10-14T20:36:01.908Z,13.30
2022-10-14T20:38:29.051Z,13.30
2022-10-14T20:40:55.829Z,13.30
2022-10-14T20:43:22.408Z,13.30
2022-10-14T20:45:49.018Z,13.20
2022-10-14T20:48:15.627Z,13.10
2022-10-14T20:50:42.507Z,13.20
2022-10-14T20:53:09.117Z,13.10
2022-10-14T20:55:35.777Z,13.10
2022-10-14T20:58:02.360Z,13.10
2022-10-14T21:00:29.222Z,13.10
2022-10-14T21:02:55.893Z,13.10
2022-10-14T21:05:22.490Z,13.10
2022-10-14T21:07:49.096Z,13.10
2022-10-14T21:10:15.798Z,13.10
2022-10-14T21:12:45.292Z,13.20
2022-10-14T21:15:15.305Z,13.20
2022-10-14T21:17:47.695Z,13.20
2022-10-14T21:20:14.513Z,13.10
2022-10-14T21:22:41.269Z,13.20
2022-10-14T21:25:08.047Z,13.20
2022-10-14T21:27:34.653Z,13.10
2022-10-14T21:30:01.263Z,13.10
2022-10-14T21:32:27.859Z,13.20
2022-10-14T21:34:54.453Z,13.30
2022-10-14T21:37:21.107Z,13.20
2022-10-14T21:39:47.851Z,13.20
2022-10-14T21:42:14.511Z,13.30
2022-10-14T21:44:41.098Z,13.30
2022-10-14T21:47:07.768Z,13.30
2022-10-14T21:49:34.340Z,13.30
2022-10-14T21:52:00.920Z,13.30
2022-10-14T21:54:27.557Z,13.30
2022-10-14T21:56:54.162Z,13.20
2022-10-14T21:59:20.736Z,13.10
2022-10-14T22:01:47.324Z,13.10
2022-10-14T22:04:13.911Z,13.20
2022-10-14T22:06:40.542Z,13.20
2022-10-14T22:09:07.752Z,13.20
2022-10-14T22:11:40.187Z,13.30
2022-10-14T22:14:10.880Z,13.40
2022-10-14T22:16:37.689Z,13.50
2022-10-14T22:19:06.337Z,13.50
2022-10-14T22:21:35.094Z,13.60
2022-10-14T22:24:02.145Z,13.60
2022-10-14T22:26:29.896Z,13.70
2022-10-14T22:29:06.476Z,13.70
2022-10-14T22:31:35.140Z,13.80
2022-10-14T22:34:04.326Z,13.80
2022-10-14T22:36:32.320Z,13.70
2022-10-14T22:39:01.363Z,13.70
2022-10-14T22:41:33.954Z,13.70
2022-10-14T22:44:02.886Z,13.70
2022-10-14T22:46:33.777Z,13.70
2022-10-14T22:49:01.764Z,13.70
2022-10-14T22:51:30.925Z,13.70
2022-10-14T22:53:57.725Z,13.70
2022-10-14T22:56:26.272Z,13.70
2022-10-14T22:58:57.662Z,13.70
2022-10-14T23:01:27.463Z,13.70
2022-10-14T23:03:55.777Z,13.70
2022-10-14T23:06:22.445Z,13.70
2022-10-14T23:08:49.052Z,13.70
2022-10-14T23:11:18.363Z,13.60
2022-10-14T23:13:45.786Z,13.60
2022-10-14T23:16:17.944Z,13.50
2022-10-14T23:18:45.821Z,13.60
2022-10-14T23:21:16.950Z,13.50
2022-10-14T23:23:45.049Z,13.40
2022-10-14T23:26:14.328Z,13.30
2022-10-14T23:28:41.524Z,13.20
2022-10-14T23:31:13.878Z,13.20
2022-10-14T23:33:40.863Z,13.10
2022-10-14T23:36:09.942Z,13.10
2022-10-14T23:38:37.553Z,13.20
2022-10-14T23:41:05.559Z,13.10
2022-10-14T23:43:32.730Z,13.10
2022-10-14T23:45:59.661Z,13.20
2022-10-14T23:48:26.748Z,13.20
2022-10-14T23:50:53.612Z,13.10
2022-10-14T23:53:20.190Z,13.10
2022-10-14T23:55:47.234Z,13.20
2022-10-14T23:58:14.257Z,13.20
